createdAt,value
2022-12-08T00:01:45.841Z,6.10
2022-12-08T00:04:17.599Z,5.40
2022-12-08T00:07:21.578Z,4.50
2022-12-08T00:09:53.146Z,5.00
2022-12-08T00:12:24.852Z,4.60
2022-12-08T00:14:56.737Z,4.70
2022-12-08T00:17:28.937Z,5.20
2022-12-08T00:20:00.628Z,4.90
2022-12-08T00:22:32.974Z,5.70
2022-12-08T00:25:05.312Z,5.30
2022-12-08T00:27:37.319Z,5.40
2022-12-08T00:30:12.054Z,5.10
2022-12-08T00:32:43.675Z,5.50
2022-12-08T00:35:15.462Z,5.20
2022-12-08T00:37:47.146Z,4.80
2022-12-08T00:40:19.369Z,7.40
2022-12-08T00:42:51.110Z,5.40
2022-12-08T00:45:22.828Z,4.10
2022-12-08T00:47:54.667Z,5.00
2022-12-08T00:50:26.259Z,6.60
2022-12-08T00:52:57.874Z,5.60
2022-12-08T00:55:29.621Z,5.00
2022-12-08T00:58:01.257Z,5.40
2022-12-08T01:00:32.976Z,5.10
2022-12-08T01:03:05.122Z,6.30
2022-12-08T01:05:36.738Z,5.00
2022-12-08T01:08:09.973Z,3.80
2022-12-08T01:10:41.639Z,5.20
2022-12-08T01:13:13.297Z,5.00
2022-12-08T01:15:45.113Z,7.10
2022-12-08T01:18:16.967Z,4.60
2022-12-08T01:20:49.925Z,5.70
2022-12-08T01:23:21.525Z,6.10
2022-12-08T01:25:53.608Z,5.80
2022-12-08T01:28:25.223Z,5.80
2022-12-08T01:30:56.928Z,5.40
2022-12-08T01:33:29.447Z,5.70
2022-12-08T01:36:05.798Z,5.80
2022-12-08T01:38:37.660Z,7.40
2022-12-08T01:41:10.976Z,6.60
2022-12-08T01:44:01.187Z,6.20
2022-12-08T01:46:35.736Z,6.20
2022-12-08T01:49:12.298Z,6.60
2022-12-08T01:51:48.316Z,8.10
2022-12-08T01:54:22.816Z,6.60
2022-12-08T01:57:00.117Z,7.30
2022-12-08T01:59:34.145Z,7.30
2022-12-08T02:02:06.617Z,7.50
2022-12-08T02:04:38.902Z,8.60
2022-12-08T02:07:13.495Z,7.50
2022-12-08T02:09:46.269Z,7.60
2022-12-08T02:12:18.308Z,7.30
2022-12-08T02:14:50.009Z,7.30
2022-12-08T02:17:40.111Z,6.80
2022-12-08T02:20:42.061Z,6.70
2022-12-08T02:23:24.808Z,7.20
2022-12-08T02:26:17.851Z,7.80
2022-12-08T02:31:45.975Z,6.40
2022-12-08T02:34:26.366Z,7.10
2022-12-08T02:37:05.512Z,6.40
2022-12-08T02:39:45.897Z,7.60
2022-12-08T02:42:27.063Z,7.00
2022-12-08T02:45:06.324Z,7.80
2022-12-08T02:47:38.858Z,7.10
2022-12-08T02:52:44.941Z,7.10
2022-12-08T02:55:28.981Z,8.30
2022-12-08T02:58:18.239Z,9.10
2022-12-08T03:01:11.956Z,8.70
2022-12-08T03:03:52.081Z,7.70
2022-12-08T03:06:32.353Z,7.20
2022-12-08T03:09:11.277Z,7.00
2022-12-08T03:11:49.287Z,5.50
2022-12-08T03:14:22.915Z,6.80
2022-12-08T03:16:59.589Z,7.10
2022-12-08T03:19:36.424Z,6.00
2022-12-08T03:22:10.330Z,6.40
2022-12-08T03:24:45.031Z,7.20
2022-12-08T03:27:19.943Z,6.40
2022-12-08T03:29:54.947Z,6.10
2022-12-08T03:32:31.547Z,7.80
2022-12-08T03:35:05.071Z,6.20
2022-12-08T03:37:39.158Z,9.00
2022-12-08T03:40:15.099Z,9.20
2022-12-08T03:42:46.956Z,8.60
2022-12-08T03:45:19.112Z,9.60
2022-12-08T03:47:50.936Z,10.80
2022-12-08T03:50:24.273Z,10.20
2022-12-08T03:52:56.080Z,11.20
2022-12-08T03:55:28.520Z,12.30
2022-12-08T03:58:00.264Z,11.50
2022-12-08T04:00:32.050Z,11.10
2022-12-08T04:03:04.707Z,11.20
2022-12-08T04:05:36.763Z,10.60
2022-12-08T04:08:08.767Z,11.50
2022-12-08T04:10:40.504Z,10.50
2022-12-08T04:13:12.051Z,8.60
2022-12-08T04:15:47.444Z,11.60
2022-12-08T04:18:19.925Z,10.20
2022-12-08T04:20:51.517Z,12.00
2022-12-08T04:23:23.291Z,11.90
2022-12-08T04:25:55.678Z,11.70
2022-12-08T04:28:29.443Z,11.40
2022-12-08T04:31:01.307Z,11.80
2022-12-08T04:33:33.145Z,12.50
2022-12-08T04:36:05.669Z,13.10
2022-12-08T04:38:37.701Z,11.50
2022-12-08T04:41:09.904Z,11.70
2022-12-08T04:43:44.211Z,11.10
2022-12-08T04:46:15.930Z,12.50
2022-12-08T04:48:47.917Z,11.20
2022-12-08T04:51:21.077Z,11.70
2022-12-08T04:53:52.767Z,11.20
2022-12-08T04:56:24.737Z,12.70
2022-12-08T04:58:56.566Z,12.30
2022-12-08T05:01:28.267Z,11.90
2022-12-08T05:04:00.452Z,13.00
2022-12-08T05:06:32.204Z,12.50
2022-12-08T05:09:03.868Z,10.00
2022-12-08T05:11:35.839Z,11.90
2022-12-08T05:14:09.864Z,11.20
2022-12-08T05:16:41.563Z,11.10
2022-12-08T05:19:14.094Z,7.90
2022-12-08T05:21:46.146Z,12.30
2022-12-08T05:24:18.004Z,10.60
2022-12-08T05:26:50.217Z,12.20
2022-12-08T05:29:21.855Z,10.80
2022-12-08T05:31:53.628Z,12.40
2022-12-08T05:34:25.433Z,9.90
2022-12-08T05:36:57.379Z,7.80
2022-12-08T05:39:29.122Z,11.60
2022-12-08T05:42:00.747Z,10.90
2022-12-08T05:44:32.453Z,11.40
2022-12-08T05:47:04.123Z,12.20
2022-12-08T05:49:36.587Z,13.30
2022-12-08T05:52:08.747Z,14.00
2022-12-08T05:54:40.779Z,14.90
2022-12-08T05:57:12.811Z,15.20
2022-12-08T05:59:44.516Z,15.50
2022-12-08T06:02:16.321Z,15.30
2022-12-08T06:04:48.709Z,16.30
2022-12-08T06:07:20.516Z,16.10
2022-12-08T06:09:52.494Z,16.10
2022-12-08T06:12:24.213Z,17.10
2022-12-08T06:14:56.091Z,15.90
2022-12-08T06:17:27.779Z,14.60
2022-12-08T06:19:59.580Z,13.90
2022-12-08T06:22:31.323Z,9.20
2022-12-08T06:25:06.049Z,12.60
2022-12-08T06:27:40.421Z,12.50
2022-12-08T06:30:12.893Z,9.80
2022-12-08T06:32:45.158Z,13.80
2022-12-08T06:35:16.783Z,13.00
2022-12-08T06:37:48.538Z,13.60
2022-12-08T06:40:20.397Z,10.50
2022-12-08T06:42:52.187Z,14.70
2022-12-08T06:45:24.103Z,15.20
2022-12-08T06:47:55.654Z,15.60
2022-12-08T06:50:27.374Z,14.60
2022-12-08T06:53:05.245Z,14.80
2022-12-08T06:58:29.910Z,15.00
2022-12-08T07:01:06.761Z,15.80
2022-12-08T07:03:39.671Z,14.80
2022-12-08T07:06:17.737Z,16.40
2022-12-08T07:08:49.476Z,16.30
2022-12-08T07:11:22.607Z,15.60
2022-12-08T07:13:56.704Z,15.10
2022-12-08T07:16:28.316Z,15.70
2022-12-08T07:19:00.328Z,9.60
2022-12-08T07:21:32.490Z,15.20
2022-12-08T07:24:04.111Z,16.40
2022-12-08T07:26:36.306Z,16.40
2022-12-08T07:29:08.880Z,15.40
2022-12-08T07:31:40.557Z,15.30
2022-12-08T07:34:13.749Z,15.60
2022-12-08T07:36:45.439Z,16.70
2022-12-08T07:39:17.226Z,17.00
2022-12-08T07:41:48.919Z,10.40
2022-12-08T07:44:20.665Z,15.20
2022-12-08T07:46:52.240Z,14.90
2022-12-08T07:49:24.316Z,10.30
2022-12-08T07:51:55.957Z,11.50
2022-12-08T07:54:28.356Z,14.20
2022-12-08T07:57:01.098Z,17.00
2022-12-08T07:59:33.259Z,15.10
2022-12-08T08:02:23.508Z,17.00
2022-12-08T08:04:56.392Z,17.00
2022-12-08T08:07:28.056Z,15.20
2022-12-08T08:09:59.685Z,15.90
2022-12-08T08:12:32.532Z,14.30
2022-12-08T08:15:07.330Z,16.00
2022-12-08T08:17:40.086Z,15.70
2022-12-08T08:20:13.760Z,14.30
2022-12-08T08:22:46.288Z,15.80
2022-12-08T08:25:19.745Z,16.60
2022-12-08T08:27:51.952Z,16.00
2022-12-08T08:30:24.118Z,15.90
2022-12-08T08:32:56.078Z,15.30
2022-12-08T08:35:27.725Z,15.60
2022-12-08T08:37:59.363Z,13.70
2022-12-08T08:40:30.980Z,15.50
2022-12-08T08:43:04.629Z,14.50
2022-12-08T08:45:36.714Z,17.40
2022-12-08T08:48:08.853Z,14.50
2022-12-08T08:50:40.732Z,15.00
2022-12-08T08:53:12.552Z,15.40
2022-12-08T08:55:44.111Z,16.00
2022-12-08T08:58:15.839Z,16.70
2022-12-08T09:00:50.956Z,14.10
2022-12-08T09:03:22.676Z,21.80
2022-12-08T09:05:55.880Z,21.50
2022-12-08T09:08:27.827Z,23.10
2022-12-08T09:10:59.751Z,20.70
2022-12-08T09:13:31.457Z,21.60
2022-12-08T09:16:04.726Z,20.70
2022-12-08T09:18:36.863Z,21.30
2022-12-08T09:21:11.518Z,21.50
2022-12-08T09:23:43.610Z,20.60
2022-12-08T09:26:15.382Z,14.00
2022-12-08T09:28:47.679Z,14.20
2022-12-08T09:31:21.506Z,20.30
2022-12-08T09:33:53.762Z,19.20
2022-12-08T09:36:25.835Z,22.20
2022-12-08T09:38:57.817Z,20.00
2022-12-08T09:41:39.219Z,18.60
2022-12-08T09:46:55.605Z,18.00
2022-12-08T09:49:36.687Z,19.50
2022-12-08T09:52:21.262Z,17.90
2022-12-08T09:54:53.387Z,18.00
2022-12-08T09:57:26.913Z,18.40
2022-12-08T10:00:04.302Z,17.40
2022-12-08T10:02:37.029Z,17.70
2022-12-08T10:05:13.851Z,18.40
2022-12-08T10:07:49.251Z,18.40
2022-12-08T10:10:34.731Z,16.80
2022-12-08T10:13:16.681Z,18.30
2022-12-08T10:15:54.392Z,17.40
2022-12-08T10:18:30.665Z,17.40
2022-12-08T10:21:18.187Z,17.20
2022-12-08T10:23:52.863Z,16.00
2022-12-08T10:26:24.902Z,18.50
2022-12-08T10:29:01.294Z,17.90
2022-12-08T10:31:34.069Z,18.30
2022-12-08T10:34:18.602Z,18.60
2022-12-08T10:36:53.107Z,18.10
2022-12-08T10:39:37.997Z,18.10
2022-12-08T10:42:22.587Z,17.60
2022-12-08T10:45:05.673Z,17.90
2022-12-08T10:47:44.853Z,18.30
2022-12-08T10:50:30.177Z,18.10
2022-12-08T10:53:03.506Z,18.60
2022-12-08T10:55:44.068Z,17.60
2022-12-08T10:58:33.713Z,19.50
2022-12-08T11:01:12.132Z,18.30
2022-12-08T11:03:48.866Z,19.70
2022-12-08T11:06:24.883Z,19.30
2022-12-08T11:08:58.377Z,18.70
2022-12-08T11:11:45.850Z,19.80
2022-12-08T11:14:23.922Z,20.00
2022-12-08T11:17:03.501Z,19.50
2022-12-08T11:19:39.952Z,19.30
2022-12-08T11:22:25.707Z,20.70
2022-12-08T11:25:03.491Z,20.40
2022-12-08T11:27:36.905Z,19.80
2022-12-08T11:30:26.620Z,19.80
2022-12-08T11:33:02.565Z,20.20
2022-12-08T11:35:39.310Z,19.60
2022-12-08T11:38:21.657Z,19.60
2022-12-08T11:40:56.716Z,20.70
2022-12-08T11:43:37.346Z,18.70
2022-12-08T11:46:17.721Z,20.20
2022-12-08T11:48:54.561Z,19.00
2022-12-08T11:51:33.297Z,19.30
2022-12-08T11:54:15.977Z,19.90
2022-12-08T11:56:52.348Z,19.90
2022-12-08T11:59:30.957Z,20.00
2022-12-08T12:02:05.524Z,20.20
2022-12-08T12:04:42.454Z,19.90
2022-12-08T12:07:48.231Z,19.90
2022-12-08T12:10:35.090Z,19.90
2022-12-08T12:13:31.434Z,18.50
2022-12-08T12:16:24.586Z,19.70
2022-12-08T12:19:00.557Z,18.10
2022-12-08T12:21:39.373Z,20.10
2022-12-08T12:24:22.244Z,19.70
2022-12-08T12:27:01.246Z,18.40
2022-12-08T12:29:35.046Z,18.20
2022-12-08T12:32:09.800Z,18.90
2022-12-08T12:34:49.760Z,18.90
2022-12-08T12:37:24.990Z,17.90
2022-12-08T12:40:02.927Z,17.80
2022-12-08T12:42:45.179Z,19.10
2022-12-08T12:45:32.904Z,17.60
2022-12-08T12:48:25.158Z,19.30
2022-12-08T12:50:57.371Z,19.80
2022-12-08T12:53:54.953Z,17.90
2022-12-08T12:56:50.834Z,19.20
2022-12-08T12:59:36.772Z,18.70
2022-12-08T13:02:19.194Z,20.20
2022-12-08T13:04:59.983Z,22.90
2022-12-08T13:07:35.046Z,22.20
2022-12-08T13:10:18.173Z,23.10
2022-12-08T13:13:06.776Z,23.50
2022-12-08T13:15:41.170Z,20.70
2022-12-08T13:18:22.673Z,23.70
2022-12-08T13:21:03.912Z,23.60
2022-12-08T13:23:51.060Z,21.40
2022-12-08T13:26:25.194Z,21.20
2022-12-08T13:29:20.481Z,22.00
2022-12-08T13:31:55.854Z,20.50
2022-12-08T13:34:35.603Z,20.60
2022-12-08T13:37:27.229Z,19.40
2022-12-08T13:40:03.767Z,19.80
2022-12-08T13:42:44.793Z,20.00
2022-12-08T13:45:59.017Z,21.00
2022-12-08T13:48:31.151Z,20.10
2022-12-08T13:57:25.519Z,20.40
2022-12-08T14:00:03.069Z,20.90
2022-12-08T14:02:48.536Z,20.20
2022-12-08T14:05:40.661Z,20.70
2022-12-08T14:08:58.364Z,22.10
2022-12-08T14:11:35.355Z,21.50
2022-12-08T14:14:10.711Z,19.80
2022-12-08T14:16:46.328Z,21.40
2022-12-08T14:19:21.181Z,20.80
2022-12-08T14:21:59.873Z,18.70
2022-12-08T14:24:33.421Z,21.40
2022-12-08T14:27:07.512Z,18.40
2022-12-08T14:29:47.404Z,21.50
2022-12-08T14:32:34.679Z,21.30
2022-12-08T14:35:23.102Z,21.60
2022-12-08T14:37:58.526Z,21.30
2022-12-08T14:40:34.876Z,21.40
2022-12-08T14:43:17.860Z,21.20
2022-12-08T14:45:55.426Z,20.50
2022-12-08T14:48:40.797Z,21.50
2022-12-08T14:51:20.952Z,21.00
2022-12-08T14:53:58.599Z,20.60
2022-12-08T14:56:37.282Z,20.90
2022-12-08T14:59:16.372Z,22.90
2022-12-08T15:01:50.162Z,20.40
2022-12-08T15:04:25.675Z,20.90
2022-12-08T15:07:06.119Z,24.00
2022-12-08T15:09:41.867Z,24.80
2022-12-08T15:12:27.256Z,26.80
2022-12-08T15:15:02.432Z,27.40
2022-12-08T15:17:42.844Z,29.90
2022-12-08T15:20:35.097Z,27.90
2022-12-08T15:23:07.952Z,30.20
2022-12-08T15:25:40.903Z,33.50
2022-12-08T15:28:15.236Z,31.50
2022-12-08T15:30:47.671Z,30.60
2022-12-08T15:33:19.562Z,31.30
2022-12-08T15:35:51.965Z,32.10
2022-12-08T15:38:26.738Z,31.50
2022-12-08T15:40:59.599Z,30.70
2022-12-08T15:43:33.701Z,32.50
2022-12-08T15:46:07.384Z,35.20
2022-12-08T15:48:40.650Z,36.70
2022-12-08T15:51:12.634Z,34.50
2022-12-08T15:53:44.336Z,36.80
2022-12-08T15:56:27.384Z,36.60
2022-12-08T15:59:00.223Z,38.10
2022-12-08T16:01:31.870Z,38.20
2022-12-08T16:09:47.921Z,36.00
2022-12-08T16:13:34.042Z,34.90
2022-12-08T16:16:01.692Z,33.90
2022-12-08T16:18:27.986Z,34.60
2022-12-08T16:23:52.163Z,34.30
2022-12-08T16:31:52.936Z,34.10
2022-12-08T16:34:24.704Z,34.70
2022-12-08T16:36:56.375Z,32.90
2022-12-08T16:39:28.198Z,32.20
2022-12-08T16:42:17.713Z,34.30
2022-12-08T16:44:49.618Z,34.40
2022-12-08T16:47:21.413Z,34.50
2022-12-08T16:49:53.449Z,33.00
2022-12-08T16:52:25.237Z,24.60
2022-12-08T16:54:57.595Z,33.50
2022-12-08T16:57:29.342Z,31.20
2022-12-08T17:00:00.986Z,29.80
2022-12-08T17:02:33.006Z,31.40
2022-12-08T17:05:06.631Z,32.90
2022-12-08T17:07:38.908Z,29.80
2022-12-08T17:10:14.504Z,29.70
2022-12-08T17:12:48.305Z,29.00
2022-12-08T17:15:23.858Z,27.80
2022-12-08T17:17:56.034Z,29.40
2022-12-08T17:20:29.746Z,29.00
2022-12-08T17:23:01.589Z,29.40
2022-12-08T17:25:33.477Z,30.20
2022-12-08T17:28:05.264Z,29.90
2022-12-08T17:30:36.844Z,21.70
2022-12-08T17:33:08.900Z,30.50
2022-12-08T17:35:40.661Z,31.00
2022-12-08T17:38:12.394Z,31.90
2022-12-08T17:40:45.517Z,29.80
2022-12-08T17:43:18.333Z,32.60
2022-12-08T17:45:50.993Z,31.00
2022-12-08T17:50:53.507Z,28.90
2022-12-08T17:53:25.568Z,31.60
2022-12-08T17:55:59.603Z,32.10
2022-12-08T17:58:32.134Z,34.30
2022-12-08T18:01:10.210Z,33.10
2022-12-08T18:03:42.516Z,32.90
2022-12-08T18:06:15.073Z,35.40
2022-12-08T18:11:19.557Z,32.70
2022-12-08T18:13:52.910Z,31.80
2022-12-08T18:16:27.451Z,31.40
2022-12-08T18:18:59.259Z,32.20
2022-12-08T18:21:31.274Z,28.90
2022-12-08T18:24:03.834Z,27.50
2022-12-08T18:29:06.658Z,24.20
2022-12-08T18:31:38.349Z,23.20
2022-12-08T18:34:10.278Z,22.20
2022-12-08T18:36:42.727Z,24.30
2022-12-08T18:39:24.229Z,21.70
2022-12-08T18:41:57.915Z,21.10
2022-12-08T18:44:30.790Z,21.40
2022-12-08T18:47:02.573Z,22.80
2022-12-08T18:49:34.205Z,22.20
2022-12-08T18:52:06.410Z,21.90
2022-12-08T18:57:30.796Z,22.00
2022-12-08T19:00:03.328Z,22.70
2022-12-08T19:02:36.204Z,22.60
2022-12-08T19:07:39.098Z,21.50
2022-12-08T19:10:12.551Z,25.10
2022-12-08T19:12:44.724Z,24.20
2022-12-08T19:15:16.954Z,24.50
2022-12-08T19:17:48.989Z,23.30
2022-12-08T19:20:20.973Z,27.50
2022-12-08T19:22:52.727Z,24.60
2022-12-08T19:25:24.920Z,19.70
2022-12-08T19:27:57.000Z,30.40
2022-12-08T19:30:28.826Z,27.70
2022-12-08T19:33:00.631Z,26.50
2022-12-08T19:35:32.392Z,18.60
2022-12-08T19:38:04.372Z,27.60
2022-12-08T19:40:53.921Z,19.40
2022-12-08T19:43:43.119Z,25.70
2022-12-08T19:46:16.572Z,25.30
2022-12-08T19:48:48.419Z,26.00
2022-12-08T19:51:20.169Z,19.80
2022-12-08T19:53:51.941Z,27.80
2022-12-08T19:56:23.989Z,27.50
2022-12-08T19:58:55.981Z,29.60
2022-12-08T20:01:28.278Z,30.60
2022-12-08T20:04:00.943Z,29.20
2022-12-08T20:06:33.659Z,29.40
2022-12-08T20:09:07.547Z,28.10
2022-12-08T20:11:40.913Z,29.10
2022-12-08T20:17:26.697Z,29.50
2022-12-08T20:20:01.559Z,29.50
2022-12-08T20:22:37.385Z,29.40
2022-12-08T20:25:13.073Z,26.20
2022-12-08T20:27:45.841Z,29.90
2022-12-08T20:32:49.434Z,28.60
2022-12-08T20:35:21.127Z,30.70
2022-12-08T20:37:52.896Z,30.70
2022-12-08T20:40:27.649Z,28.90
2022-12-08T20:42:59.478Z,27.70
2022-12-08T20:45:31.326Z,21.50
2022-12-08T20:48:03.257Z,14.30
2022-12-08T20:50:35.262Z,18.90
2022-12-08T20:53:07.920Z,17.40
2022-12-08T20:55:43.195Z,14.70
2022-12-08T20:58:15.378Z,14.30
2022-12-08T21:00:47.831Z,13.10
2022-12-08T21:03:19.865Z,11.20
2022-12-08T21:05:53.212Z,9.50
2022-12-08T21:08:28.200Z,10.50
2022-12-08T21:11:00.246Z,10.60
2022-12-08T21:13:32.372Z,9.90
2022-12-08T21:16:04.930Z,12.10
2022-12-08T21:21:14.337Z,12.20
2022-12-08T21:23:46.626Z,10.00
2022-12-08T21:26:21.688Z,10.50
2022-12-08T21:28:54.726Z,11.70
2022-12-08T21:31:29.281Z,10.30
2022-12-08T21:34:02.170Z,10.20
2022-12-08T21:36:34.812Z,9.20
2022-12-08T21:39:12.435Z,9.50
2022-12-08T21:42:01.923Z,10.30
2022-12-08T21:44:35.438Z,10.00
2022-12-08T21:47:07.945Z,9.20
2022-12-08T21:49:39.783Z,11.50
2022-12-08T21:52:11.725Z,11.40
2022-12-08T21:54:43.759Z,11.40
2022-12-08T21:57:15.678Z,11.30
2022-12-08T21:59:47.491Z,12.00
2022-12-08T22:02:22.487Z,12.70
2022-12-08T22:04:57.891Z,11.80
2022-12-08T22:07:29.750Z,12.60
2022-12-08T22:10:01.891Z,14.60
2022-12-08T22:12:33.674Z,14.20
2022-12-08T22:15:06.849Z,12.70
2022-12-08T22:17:40.574Z,14.60
2022-12-08T22:20:15.050Z,14.70
2022-12-08T22:22:47.303Z,13.90
2022-12-08T22:25:19.191Z,14.60
2022-12-08T22:27:54.403Z,15.30
2022-12-08T22:30:26.308Z,15.70
2022-12-08T22:32:58.869Z,15.80
2022-12-08T22:35:30.855Z,17.90
2022-12-08T22:38:02.725Z,17.10
2022-12-08T22:40:34.617Z,11.90
2022-12-08T22:43:06.391Z,17.00
2022-12-08T22:45:38.305Z,12.30
2022-12-08T22:48:10.642Z,17.50
2022-12-08T22:50:43.051Z,16.90
2022-12-08T22:53:15.480Z,17.10
2022-12-08T22:55:47.671Z,15.70
2022-12-08T22:58:19.862Z,16.30
2022-12-08T23:00:51.758Z,17.20
2022-12-08T23:03:23.748Z,15.20
2022-12-08T23:05:56.053Z,13.40
2022-12-08T23:08:28.225Z,13.40
2022-12-08T23:11:00.226Z,13.90
2022-12-08T23:13:31.979Z,14.00
2022-12-08T23:16:03.655Z,12.80
2022-12-08T23:18:35.369Z,6.60
2022-12-08T23:21:10.088Z,14.30
2022-12-08T23:23:41.991Z,12.30
2022-12-08T23:26:21.272Z,12.40
2022-12-08T23:28:53.545Z,14.00
2022-12-08T23:31:26.337Z,14.30
2022-12-08T23:33:58.762Z,14.00
2022-12-08T23:36:31.567Z,13.40
2022-12-08T23:39:03.330Z,13.60
2022-12-08T23:41:35.282Z,13.40
2022-12-08T23:44:09.099Z,14.60
2022-12-08T23:46:41.176Z,13.90
2022-12-08T23:49:13.042Z,14.40
2022-12-08T23:51:44.724Z,13.60
2022-12-08T23:54:16.879Z,13.50
2022-12-08T23:56:48.572Z,13.70
2022-12-08T23:59:20.491Z,11.50
